Terminal Aerodrome Forecast
Issued by NWS

Home | Current Version | Previous Version | Text Only | Print | Product List | Glossary On
Versions: 1 2 3 4 5 6 7 8 9 10 11 12 13 14 15 16 17
000
FTUS41 KBTV 161300 AAA
TAFMSS
TAF AMD
KMSS 161315Z 1613/1712 25006KT P6SM SCT007 BKN015
      TEMPO 1613/1616 BKN007
     FM162100 27006KT P6SM FEW050
     FM170600 23005KT P6SM SCT250=

USA.gov is the U.S. government's official web portal to all federal, state and local government web resources and services.